createdAt,value
2023-01-27T00:01:26.480Z,101957.19
2023-01-27T00:03:53.100Z,101953.72
2023-01-27T00:06:22.073Z,101945.56
2023-01-27T00:09:01.475Z,101949.44
2023-01-27T00:11:46.447Z,101946.00
2023-01-27T00:14:13.042Z,101947.78
2023-01-27T00:16:43.331Z,101944.94
2023-01-27T00:19:23.449Z,101940.69
2023-01-27T00:22:11.975Z,101940.84
2023-01-27T00:24:39.207Z,101947.78
2023-01-27T00:27:11.001Z,101945.94
2023-01-27T00:29:38.766Z,101942.63
2023-01-27T00:32:24.861Z,101938.94
2023-01-27T00:34:52.966Z,101935.72
2023-01-27T00:37:19.724Z,101939.16
2023-01-27T00:39:47.947Z,101940.00
2023-01-27T00:42:22.963Z,101942.63
2023-01-27T00:45:08.629Z,101951.28
2023-01-27T00:47:35.259Z,101946.13
2023-01-27T00:50:06.075Z,101947.69
2023-01-27T00:52:36.094Z,101950.28
2023-01-27T00:55:02.728Z,101953.91
2023-01-27T00:57:32.341Z,101946.06
2023-01-27T01:00:02.642Z,101959.00
2023-01-27T01:02:29.413Z,101959.84
2023-01-27T01:04:56.066Z,101952.16
2023-01-27T01:07:23.914Z,101957.47
2023-01-27T01:09:59.531Z,101959.16
2023-01-27T01:12:27.197Z,101961.66
2023-01-27T01:14:59.790Z,101965.09
2023-01-27T01:17:27.400Z,101959.00
2023-01-27T01:20:00.421Z,101958.09
2023-01-27T01:22:31.085Z,101962.38
2023-01-27T01:25:04.222Z,101959.72
2023-01-27T01:27:40.255Z,101960.53
2023-01-27T01:30:07.532Z,101971.78
2023-01-27T01:32:35.139Z,101960.50
2023-01-27T01:35:02.482Z,101971.00
2023-01-27T01:37:29.350Z,101968.41
2023-01-27T01:39:56.548Z,101979.56
2023-01-27T01:42:48.944Z,101976.06
2023-01-27T01:45:34.096Z,101977.75
2023-01-27T01:48:08.380Z,101975.94
2023-01-27T01:50:35.230Z,101972.47
2023-01-27T01:53:05.274Z,101972.41
2023-01-27T01:55:39.929Z,101981.84
2023-01-27T01:58:15.520Z,101979.28
2023-01-27T02:00:46.251Z,101986.22
2023-01-27T02:03:18.850Z,101990.53
2023-01-27T02:05:50.420Z,101979.22
2023-01-27T02:08:26.264Z,101978.56
2023-01-27T02:10:54.604Z,101987.25
2023-01-27T02:13:23.405Z,101982.97
2023-01-27T02:15:53.317Z,101982.97
2023-01-27T02:18:28.314Z,101976.81
2023-01-27T02:20:56.278Z,101983.00
2023-01-27T02:23:54.146Z,101982.19
2023-01-27T02:26:37.027Z,101974.53
2023-01-27T02:29:10.401Z,101973.72
2023-01-27T02:31:46.096Z,101971.19
2023-01-27T02:34:16.941Z,101976.53
2023-01-27T02:36:59.094Z,101977.41
2023-01-27T02:39:40.885Z,101975.69
2023-01-27T02:42:13.078Z,101977.31
2023-01-27T02:44:39.817Z,101975.66
2023-01-27T02:47:08.498Z,101975.47
2023-01-27T02:49:35.718Z,101979.88
2023-01-27T02:52:04.691Z,101978.13
2023-01-27T02:54:31.863Z,101983.28
2023-01-27T02:56:58.918Z,101983.25
2023-01-27T02:59:26.055Z,101992.81
2023-01-27T03:01:58.474Z,101986.69
2023-01-27T03:04:26.609Z,102001.34
2023-01-27T03:06:54.188Z,101990.13
2023-01-27T03:09:30.689Z,101991.84
2023-01-27T03:12:16.208Z,101995.84
2023-01-27T03:15:03.296Z,101999.59
2023-01-27T03:17:48.846Z,102004.75
2023-01-27T03:20:17.055Z,102000.53
2023-01-27T03:22:47.543Z,101994.44
2023-01-27T03:25:18.195Z,101992.81
2023-01-27T03:27:45.119Z,101993.66
2023-01-27T03:30:12.219Z,102003.22
2023-01-27T03:32:47.720Z,102000.66
2023-01-27T03:35:16.529Z,102006.69
2023-01-27T03:38:12.022Z,101998.84
2023-01-27T03:40:57.358Z,102005.03
2023-01-27T03:43:45.769Z,101996.44
2023-01-27T03:46:24.407Z,101997.34
2023-01-27T03:48:56.863Z,101999.88
2023-01-27T03:51:26.919Z,101999.22
2023-01-27T03:53:59.904Z,101997.56
2023-01-27T03:56:33.106Z,102005.22
2023-01-27T03:58:59.971Z,102000.88
2023-01-27T04:01:27.312Z,102004.34
2023-01-27T04:04:16.944Z,102002.69
2023-01-27T04:06:58.888Z,102002.63
2023-01-27T04:09:28.805Z,101999.19
2023-01-27T04:12:00.406Z,102006.97
2023-01-27T04:14:37.991Z,102006.13
2023-01-27T04:17:09.803Z,102004.22
2023-01-27T04:19:39.986Z,102000.72
2023-01-27T04:22:19.661Z,102006.91
2023-01-27T04:24:50.669Z,102006.19
2023-01-27T04:27:23.285Z,102008.03
2023-01-27T04:29:50.896Z,101996.84
2023-01-27T04:32:17.534Z,102002.13
2023-01-27T04:34:48.315Z,102003.00
2023-01-27T04:37:19.530Z,102009.00
2023-01-27T04:39:50.673Z,102019.31
2023-01-27T04:42:20.567Z,102021.06
2023-01-27T04:44:47.238Z,102020.22
2023-01-27T04:47:13.906Z,102016.72
2023-01-27T04:49:41.082Z,102019.09
2023-01-27T04:52:07.699Z,102011.34
2023-01-27T04:54:34.313Z,102021.06
2023-01-27T04:57:07.783Z,102015.94
2023-01-27T04:59:37.925Z,102016.88
2023-01-27T05:02:04.851Z,102028.06
2023-01-27T05:04:32.518Z,102028.03
2023-01-27T05:06:59.165Z,102022.88
2023-01-27T05:09:26.688Z,102025.34
2023-01-27T05:11:53.324Z,102025.13
2023-01-27T05:14:20.204Z,102031.28
2023-01-27T05:16:53.008Z,102022.81
2023-01-27T05:19:19.801Z,102030.69
2023-01-27T05:21:46.449Z,102043.59
2023-01-27T05:24:13.199Z,102046.09
2023-01-27T05:26:45.572Z,102039.72
2023-01-27T05:29:15.104Z,102039.97
2023-01-27T05:31:41.975Z,102050.78
2023-01-27T05:34:10.121Z,102044.25
2023-01-27T05:36:40.363Z,102041.72
2023-01-27T05:39:08.909Z,102055.53
2023-01-27T05:41:36.088Z,102058.03
2023-01-27T05:44:04.670Z,102043.47
2023-01-27T05:46:38.316Z,102050.47
2023-01-27T05:49:06.174Z,102057.47
2023-01-27T05:51:37.600Z,102047.84
2023-01-27T05:54:08.393Z,102051.25
2023-01-27T05:56:44.570Z,102056.06
2023-01-27T05:59:23.263Z,102062.06
2023-01-27T06:01:51.510Z,102056.19
2023-01-27T06:04:18.208Z,102052.03
2023-01-27T06:06:57.903Z,102058.59
2023-01-27T06:09:33.082Z,102060.38
2023-01-27T06:12:02.631Z,102054.44
2023-01-27T06:14:31.832Z,102057.56
2023-01-27T06:17:01.592Z,102061.06
2023-01-27T06:19:33.348Z,102063.78
2023-01-27T06:22:04.114Z,102064.88
2023-01-27T06:24:31.393Z,102067.50
2023-01-27T06:26:58.675Z,102065.84
2023-01-27T06:29:28.011Z,102072.63
2023-01-27T06:31:56.489Z,102079.03
2023-01-27T06:34:29.765Z,102073.66
2023-01-27T06:37:02.596Z,102072.16
2023-01-27T06:39:29.336Z,102070.03
2023-01-27T06:42:02.074Z,102065.44
2023-01-27T06:44:36.174Z,102061.69
2023-01-27T06:47:05.466Z,102065.19
2023-01-27T06:49:42.377Z,102074.16
2023-01-27T06:52:09.617Z,102069.41
2023-01-27T06:54:39.185Z,102078.94
2023-01-27T06:57:09.530Z,102075.63
2023-01-27T06:59:36.273Z,102081.63
2023-01-27T07:02:02.889Z,102091.91
2023-01-27T07:04:35.977Z,102088.94
2023-01-27T07:07:05.501Z,102081.88
2023-01-27T07:09:37.595Z,102088.94
2023-01-27T07:12:13.317Z,102087.22
2023-01-27T07:14:40.000Z,102082.94
2023-01-27T07:17:08.197Z,102092.56
2023-01-27T07:19:35.268Z,102088.91
2023-01-27T07:22:02.715Z,102093.31
2023-01-27T07:24:29.312Z,102095.59
2023-01-27T07:26:55.995Z,102097.00
2023-01-27T07:29:22.807Z,102101.34
2023-01-27T07:31:49.565Z,102097.88
2023-01-27T07:34:16.373Z,102099.75
2023-01-27T07:36:43.082Z,102099.53
2023-01-27T07:39:09.732Z,102094.38
2023-01-27T07:41:36.397Z,102105.84
2023-01-27T07:44:03.034Z,102103.34
2023-01-27T07:46:29.683Z,102105.97
2023-01-27T07:48:58.969Z,102099.94
2023-01-27T07:51:25.591Z,102108.59
2023-01-27T07:53:55.076Z,102122.44
2023-01-27T07:56:21.727Z,102116.50
2023-01-27T07:58:48.412Z,102122.53
2023-01-27T08:01:19.926Z,102122.56
2023-01-27T08:03:46.536Z,102128.66
2023-01-27T08:06:13.382Z,102126.97
2023-01-27T08:08:42.982Z,102133.00
2023-01-27T08:11:13.033Z,102127.97
2023-01-27T08:13:40.055Z,102132.38
2023-01-27T08:16:09.069Z,102126.41
2023-01-27T08:18:35.804Z,102122.97
2023-01-27T08:21:05.837Z,102124.72
2023-01-27T08:23:33.380Z,102128.28
2023-01-27T08:26:05.556Z,102130.03
2023-01-27T08:28:34.321Z,102135.34
2023-01-27T08:31:08.979Z,102135.34
2023-01-27T08:33:36.469Z,102137.25
2023-01-27T08:36:13.940Z,102138.25
2023-01-27T08:38:49.425Z,102142.63
2023-01-27T08:41:26.767Z,102147.78
2023-01-27T08:43:55.016Z,102153.09
2023-01-27T08:46:24.730Z,102148.75
2023-01-27T08:48:51.876Z,102149.72
2023-01-27T08:51:18.601Z,102154.00
2023-01-27T08:53:45.492Z,102157.47
2023-01-27T08:56:14.800Z,102152.34
2023-01-27T08:58:42.376Z,102158.47
2023-01-27T09:01:12.550Z,102160.28
2023-01-27T09:03:39.442Z,102163.81
2023-01-27T09:06:10.867Z,102167.38
2023-01-27T09:08:37.852Z,102168.25
2023-01-27T09:11:13.939Z,102171.88
2023-01-27T09:13:41.127Z,102178.84
2023-01-27T09:16:08.205Z,102169.50
2023-01-27T09:18:39.584Z,102168.78
2023-01-27T09:21:07.056Z,102171.41
2023-01-27T09:23:34.993Z,102167.19
2023-01-27T09:26:01.711Z,102176.69
2023-01-27T09:28:28.548Z,102185.41
2023-01-27T09:30:59.456Z,102185.53
2023-01-27T09:33:27.260Z,102175.22
2023-01-27T09:35:57.455Z,102189.97
2023-01-27T09:38:28.877Z,102192.56
2023-01-27T09:41:29.936Z,102191.75
2023-01-27T09:44:11.808Z,102186.56
2023-01-27T09:47:12.039Z,102194.38
2023-01-27T09:50:07.241Z,102195.25
2023-01-27T09:53:01.026Z,102196.22
2023-01-27T09:55:33.473Z,102189.34
2023-01-27T09:58:27.467Z,102189.38
2023-01-27T10:00:54.092Z,102194.59
2023-01-27T10:03:32.792Z,102189.47
2023-01-27T10:06:28.603Z,102189.53
2023-01-27T10:09:11.996Z,102189.53
2023-01-27T10:12:01.041Z,102188.75
2023-01-27T10:14:36.633Z,102190.59
2023-01-27T10:17:22.151Z,102188.06
2023-01-27T10:19:48.861Z,102196.78
2023-01-27T10:22:33.939Z,102195.84
2023-01-27T10:25:24.198Z,102199.34
2023-01-27T10:27:59.628Z,102202.81
2023-01-27T10:30:36.637Z,102201.97
2023-01-27T10:33:32.632Z,102199.38
2023-01-27T10:36:04.659Z,102203.72
2023-01-27T10:38:51.185Z,102201.19
2023-01-27T10:41:23.529Z,102207.38
2023-01-27T10:44:12.950Z,102196.25
2023-01-27T10:47:07.283Z,102200.63
2023-01-27T10:49:40.813Z,102194.59
2023-01-27T10:52:16.120Z,102199.91
2023-01-27T10:54:50.931Z,102198.09
2023-01-27T10:58:05.407Z,102201.56
2023-01-27T11:01:12.914Z,102201.69
2023-01-27T11:03:38.325Z,102200.84
2023-01-27T11:06:10.245Z,102198.25
2023-01-27T11:08:40.784Z,102198.31
2023-01-27T11:11:30.450Z,102205.25
2023-01-27T11:14:27.617Z,102200.13
2023-01-27T11:17:17.613Z,102207.97
2023-01-27T11:19:56.986Z,102199.44
2023-01-27T11:22:31.794Z,102201.19
2023-01-27T11:25:17.574Z,102200.38
2023-01-27T11:28:07.159Z,102190.72
2023-01-27T11:30:50.183Z,102196.03
2023-01-27T11:33:24.548Z,102198.69
2023-01-27T11:35:53.557Z,102194.38
2023-01-27T11:38:22.813Z,102193.44
2023-01-27T11:40:53.234Z,102198.72
2023-01-27T11:43:27.002Z,102199.53
2023-01-27T11:46:07.788Z,102192.53
2023-01-27T11:48:42.255Z,102191.66
2023-01-27T11:51:22.281Z,102189.03
2023-01-27T11:54:25.847Z,102195.00
2023-01-27T11:56:52.558Z,102193.16
2023-01-27T11:59:39.753Z,102188.00
2023-01-27T12:02:09.281Z,102192.31
2023-01-27T12:04:38.749Z,102191.50
2023-01-27T12:07:12.911Z,102187.19
2023-01-27T12:09:44.447Z,102183.72
2023-01-27T12:12:14.005Z,102191.53
2023-01-27T12:14:48.712Z,102185.47
2023-01-27T12:17:24.207Z,102184.56
2023-01-27T12:19:54.340Z,102189.00
2023-01-27T12:22:32.727Z,102180.31
2023-01-27T12:25:03.557Z,102185.53
2023-01-27T12:27:43.591Z,102190.84
2023-01-27T12:30:23.988Z,102192.50
2023-01-27T12:32:52.142Z,102189.03
2023-01-27T12:35:26.418Z,102188.16
2023-01-27T12:38:05.329Z,102178.56
2023-01-27T12:40:33.724Z,102182.88
2023-01-27T12:43:14.893Z,102188.09
2023-01-27T12:45:43.654Z,102184.63
2023-01-27T12:48:13.103Z,102185.53
2023-01-27T12:50:54.813Z,102185.59
2023-01-27T12:53:29.786Z,102185.63
2023-01-27T12:55:59.142Z,102187.34
2023-01-27T12:58:31.481Z,102181.25
2023-01-27T13:01:01.297Z,102189.09
2023-01-27T13:03:29.578Z,102190.91
2023-01-27T13:06:03.454Z,102188.25
2023-01-27T13:08:33.379Z,102189.97
2023-01-27T13:11:02.586Z,102193.41
2023-01-27T13:13:30.923Z,102200.38
2023-01-27T13:16:08.484Z,102196.78
2023-01-27T13:18:42.390Z,102188.06
2023-01-27T13:21:21.415Z,102201.00
2023-01-27T13:23:50.488Z,102195.84
2023-01-27T13:26:21.749Z,102199.28
2023-01-27T13:29:00.132Z,102198.44
2023-01-27T13:31:53.233Z,102198.41
2023-01-27T13:34:52.838Z,102200.19
2023-01-27T13:37:26.739Z,102195.88
2023-01-27T13:39:57.049Z,102204.53
2023-01-27T13:42:33.318Z,102207.19
2023-01-27T13:45:23.269Z,102205.41
2023-01-27T13:48:04.984Z,102207.09
2023-01-27T13:50:39.587Z,102213.16
2023-01-27T13:53:11.580Z,102204.47
2023-01-27T13:55:53.248Z,102220.94
2023-01-27T13:58:34.221Z,102217.44
2023-01-27T14:01:19.405Z,102222.63
2023-01-27T14:04:04.562Z,102230.34
2023-01-27T14:06:50.000Z,102226.88
2023-01-27T14:09:22.535Z,102229.44
2023-01-27T14:12:11.889Z,102233.69
2023-01-27T14:14:57.496Z,102234.59
2023-01-27T14:17:39.665Z,102232.78
2023-01-27T14:20:32.998Z,102238.84
2023-01-27T14:23:18.195Z,102237.94
2023-01-27T14:26:01.117Z,102233.59
2023-01-27T14:28:36.715Z,102250.09
2023-01-27T14:31:11.076Z,102243.97
2023-01-27T14:34:02.111Z,102245.72
2023-01-27T14:36:38.653Z,102250.88
2023-01-27T14:39:31.208Z,102247.47
2023-01-27T14:42:05.679Z,102248.34
2023-01-27T14:45:03.846Z,102252.69
2023-01-27T14:48:15.633Z,102249.31
2023-01-27T14:50:48.390Z,102259.69
2023-01-27T14:53:42.278Z,102252.81
2023-01-27T14:56:13.246Z,102249.31
2023-01-27T14:58:55.300Z,102257.91
2023-01-27T15:01:45.213Z,102246.63
2023-01-27T15:04:35.462Z,102256.13
2023-01-27T15:07:11.675Z,102259.59
2023-01-27T15:10:10.967Z,102260.44
2023-01-27T15:12:59.558Z,102265.63
2023-01-27T15:16:04.204Z,102256.97
2023-01-27T15:18:36.780Z,102262.88
2023-01-27T15:21:31.345Z,102268.09
2023-01-27T15:24:01.114Z,102271.47
2023-01-27T15:26:30.378Z,102267.16
2023-01-27T15:28:59.724Z,102267.22
2023-01-27T15:31:29.203Z,102261.16
2023-01-27T15:34:10.668Z,102271.53
2023-01-27T15:36:58.992Z,102277.50
2023-01-27T15:39:40.525Z,102277.50
2023-01-27T15:42:11.824Z,102288.75
2023-01-27T15:44:44.568Z,102289.59
2023-01-27T15:47:28.574Z,102292.13
2023-01-27T15:50:13.180Z,102299.97
2023-01-27T15:52:45.553Z,102305.94
2023-01-27T15:55:33.248Z,102317.16
2023-01-27T15:58:35.741Z,102317.22
2023-01-27T16:01:05.884Z,102314.63
2023-01-27T16:03:44.092Z,102318.03
2023-01-27T16:06:16.975Z,102313.63
2023-01-27T16:08:49.993Z,102319.75
2023-01-27T16:11:28.512Z,102328.41
2023-01-27T16:14:13.841Z,102334.47
2023-01-27T16:16:50.182Z,102325.81
2023-01-27T16:19:28.736Z,102322.28
2023-01-27T16:22:12.536Z,102321.41
2023-01-27T16:24:51.264Z,102323.03
2023-01-27T16:27:41.826Z,102328.28
2023-01-27T16:30:49.067Z,102329.94
2023-01-27T16:33:42.056Z,102335.06
2023-01-27T16:36:14.337Z,102325.50
2023-01-27T16:38:47.201Z,102319.41
2023-01-27T16:41:19.309Z,102328.94
2023-01-27T16:43:57.445Z,102324.44
2023-01-27T16:46:47.071Z,102334.97
2023-01-27T16:49:48.850Z,102340.97
2023-01-27T16:52:41.197Z,102341.84
2023-01-27T16:55:22.485Z,102344.44
2023-01-27T16:57:54.258Z,102354.72
2023-01-27T17:00:28.638Z,102356.53
2023-01-27T17:02:59.371Z,102350.38
2023-01-27T17:05:27.197Z,102353.97
2023-01-27T17:08:17.528Z,102357.31
2023-01-27T17:10:56.551Z,102354.59
2023-01-27T17:13:33.280Z,102352.94
2023-01-27T17:16:01.845Z,102355.53
2023-01-27T17:18:50.732Z,102356.38
2023-01-27T17:21:39.530Z,102370.19
2023-01-27T17:24:23.157Z,102364.00
2023-01-27T17:26:56.834Z,102358.13
2023-01-27T17:29:30.868Z,102364.09
2023-01-27T17:31:57.722Z,102359.75
2023-01-27T17:34:25.863Z,102359.72
2023-01-27T17:37:22.150Z,102360.41
2023-01-27T17:39:54.154Z,102362.19
2023-01-27T17:42:22.030Z,102357.88
2023-01-27T17:44:49.286Z,102361.34
2023-01-27T17:47:18.264Z,102369.88
2023-01-27T17:49:47.412Z,102370.69
2023-01-27T17:52:25.081Z,102366.34
2023-01-27T17:54:52.471Z,102373.25
2023-01-27T17:57:26.527Z,102374.94
2023-01-27T18:00:01.338Z,102370.56
2023-01-27T18:02:31.756Z,102369.66
2023-01-27T18:05:14.048Z,102372.28
2023-01-27T18:07:41.011Z,102373.94
2023-01-27T18:10:36.187Z,102383.44
2023-01-27T18:13:18.094Z,102395.50
2023-01-27T18:15:58.794Z,102394.63
2023-01-27T18:18:35.723Z,102393.78
2023-01-27T18:21:09.641Z,102392.88
2023-01-27T18:23:43.338Z,102398.94
2023-01-27T18:26:23.888Z,102403.31
2023-01-27T18:28:55.306Z,102399.81
2023-01-27T18:31:32.583Z,102402.38
2023-01-27T18:34:25.911Z,102405.09
2023-01-27T18:37:06.208Z,102409.31
2023-01-27T18:39:37.420Z,102409.28
2023-01-27T18:42:13.037Z,102414.47
2023-01-27T18:44:39.744Z,102415.19
2023-01-27T18:47:50.987Z,102421.25
2023-01-27T18:50:22.924Z,102423.84
2023-01-27T18:52:51.070Z,102428.97
2023-01-27T18:55:23.334Z,102424.63
2023-01-27T18:57:52.885Z,102428.94
2023-01-27T19:00:22.359Z,102427.13
2023-01-27T19:02:59.275Z,102431.38
2023-01-27T19:05:29.038Z,102432.31
2023-01-27T19:07:55.761Z,102432.22
2023-01-27T19:10:28.638Z,102430.50
2023-01-27T19:13:00.114Z,102424.50
2023-01-27T19:15:35.055Z,102426.97
2023-01-27T19:18:12.258Z,102432.13
2023-01-27T19:20:39.257Z,102430.31
2023-01-27T19:23:05.899Z,102432.88
2023-01-27T19:25:32.571Z,102430.16
2023-01-27T19:28:04.555Z,102431.91
2023-01-27T19:30:36.333Z,102439.53
2023-01-27T19:33:06.537Z,102433.53
2023-01-27T19:35:33.143Z,102433.53
2023-01-27T19:38:04.812Z,102437.81
2023-01-27T19:40:31.955Z,102444.66
2023-01-27T19:42:58.792Z,102447.25
2023-01-27T19:45:32.883Z,102436.84
2023-01-27T19:48:00.020Z,102446.31
2023-01-27T19:50:32.313Z,102443.69
2023-01-27T19:52:59.003Z,102444.38
2023-01-27T19:55:25.821Z,102442.66
2023-01-27T19:57:52.960Z,102446.09
2023-01-27T20:00:24.388Z,102452.91
2023-01-27T20:02:51.169Z,102448.63
2023-01-27T20:05:18.715Z,102463.31
2023-01-27T20:07:46.048Z,102458.00
2023-01-27T20:10:19.253Z,102462.25
2023-01-27T20:12:54.585Z,102462.22
2023-01-27T20:15:24.145Z,102465.63
2023-01-27T20:17:54.604Z,102462.78
2023-01-27T20:20:22.452Z,102459.47
2023-01-27T20:22:49.387Z,102464.72
2023-01-27T20:25:19.406Z,102464.41
2023-01-27T20:27:52.092Z,102473.91
2023-01-27T20:30:23.485Z,102474.75
2023-01-27T20:32:50.741Z,102473.81
2023-01-27T20:35:24.864Z,102474.69
2023-01-27T20:37:53.487Z,102473.88
2023-01-27T20:40:28.491Z,102477.28
2023-01-27T20:42:55.613Z,102477.28
2023-01-27T20:45:22.996Z,102476.25
2023-01-27T20:47:50.871Z,102480.53
2023-01-27T20:50:17.689Z,102474.50
2023-01-27T20:52:44.936Z,102487.47
2023-01-27T20:55:13.946Z,102485.63
2023-01-27T20:57:41.120Z,102474.34
2023-01-27T21:00:19.044Z,102483.84
2023-01-27T21:02:45.940Z,102487.13
2023-01-27T21:05:14.474Z,102482.78
2023-01-27T21:07:41.586Z,102492.19
2023-01-27T21:10:11.764Z,102489.50
2023-01-27T21:12:38.596Z,102484.16
2023-01-27T21:15:09.841Z,102481.38
2023-01-27T21:17:36.750Z,102475.25
2023-01-27T21:20:03.937Z,102476.97
2023-01-27T21:22:30.817Z,102484.63
2023-01-27T21:24:57.572Z,102484.47
2023-01-27T21:27:24.282Z,102483.47
2023-01-27T21:29:53.678Z,102489.22
2023-01-27T21:32:22.697Z,102481.22
2023-01-27T21:34:49.353Z,102484.44
2023-01-27T21:37:18.935Z,102491.22
2023-01-27T21:39:45.716Z,102483.09
2023-01-27T21:42:14.340Z,102485.44
2023-01-27T21:44:59.830Z,102486.13
2023-01-27T21:47:28.045Z,102491.75
2023-01-27T21:50:03.549Z,102490.84
2023-01-27T21:52:34.323Z,102493.09
2023-01-27T21:55:15.395Z,102491.19
2023-01-27T21:57:43.466Z,102490.91
2023-01-27T22:00:10.976Z,102493.44
2023-01-27T22:02:41.727Z,102496.66
2023-01-27T22:05:10.395Z,102490.44
2023-01-27T22:07:41.994Z,102492.06
2023-01-27T22:10:14.178Z,102499.69
2023-01-27T22:12:43.721Z,102496.88
2023-01-27T22:15:11.993Z,102494.09
2023-01-27T22:17:38.852Z,102486.50
2023-01-27T22:20:15.359Z,102486.50
2023-01-27T22:22:45.297Z,102485.84
2023-01-27T22:25:14.655Z,102485.59
2023-01-27T22:27:42.418Z,102489.19
2023-01-27T22:30:14.004Z,102490.97
2023-01-27T22:32:44.252Z,102496.38
2023-01-27T22:35:14.129Z,102492.03
2023-01-27T22:37:41.032Z,102491.56
2023-01-27T22:40:08.421Z,102484.13
2023-01-27T22:42:41.172Z,102493.81
2023-01-27T22:45:09.483Z,102490.88
2023-01-27T22:47:36.470Z,102485.06
2023-01-27T22:50:03.907Z,102483.88
2023-01-27T22:52:30.928Z,102483.44
2023-01-27T22:54:57.874Z,102479.22
2023-01-27T22:57:30.268Z,102481.47
2023-01-27T22:59:58.969Z,102477.66
2023-01-27T23:02:30.093Z,102474.59
2023-01-27T23:04:58.414Z,102471.69
2023-01-27T23:07:26.151Z,102481.47
2023-01-27T23:09:54.906Z,102478.97
2023-01-27T23:12:21.743Z,102474.56
2023-01-27T23:14:51.423Z,102469.34
2023-01-27T23:17:18.066Z,102464.47
2023-01-27T23:19:48.002Z,102464.16
2023-01-27T23:22:15.416Z,102468.75
2023-01-27T23:24:51.189Z,102466.41
2023-01-27T23:27:17.962Z,102470.91
2023-01-27T23:29:47.955Z,102466.78
2023-01-27T23:32:15.389Z,102454.44
2023-01-27T23:34:42.110Z,102461.47
2023-01-27T23:37:11.702Z,102458.13
2023-01-27T23:39:38.343Z,102467.88
2023-01-27T23:42:07.770Z,102455.19
2023-01-27T23:44:34.888Z,102462.44
2023-01-27T23:47:01.661Z,102458.91
2023-01-27T23:49:37.523Z,102466.44
2023-01-27T23:52:10.738Z,102461.16
2023-01-27T23:54:37.489Z,102464.94
2023-01-27T23:57:15.105Z,102461.81
2023-01-27T23:59:50.156Z,102466.50
